sensor_id;sensor_type;location;lat;lon;timestamp;P1;durP1;ratioP1;P2;durP2;ratioP2
21780;SDS011;52576;53.614;9.894;2022-07-09T00:01:09;17.65;;;4.90;;
21780;SDS011;52576;53.614;9.894;2022-07-09T00:02:14;20.98;;;5.35;;
21780;SDS011;52576;53.614;9.894;2022-07-09T00:03:17;15.77;;;4.28;;
21780;SDS011;52576;53.614;9.894;2022-07-09T00:04:20;16.13;;;4.80;;
21780;SDS011;52576;53.614;9.894;2022-07-09T00:05:23;21.55;;;4.93;;
21780;SDS011;52576;53.614;9.894;2022-07-09T00:06:26;19.25;;;5.07;;
21780;SDS011;52576;53.614;9.894;2022-07-09T00:07:30;24.42;;;4.57;;
21780;SDS011;52576;53.614;9.894;2022-07-09T00:08:33;15.07;;;5.18;;
21780;SDS011;52576;53.614;9.894;2022-07-09T00:09:39;18.80;;;4.82;;
21780;SDS011;52576;53.614;9.894;2022-07-09T00:10:41;18.75;;;4.47;;
21780;SDS011;52576;53.614;9.894;2022-07-09T00:11:44;17.60;;;5.15;;
21780;SDS011;52576;53.614;9.894;2022-07-09T00:12:52;15.93;;;4.63;;
21780;SDS011;52576;53.614;9.894;2022-07-09T00:13:55;17.35;;;4.43;;
21780;SDS011;52576;53.614;9.894;2022-07-09T00:14:57;20.85;;;4.40;;
21780;SDS011;52576;53.614;9.894;2022-07-09T00:16:00;13.57;;;4.20;;
21780;SDS011;52576;53.614;9.894;2022-07-09T00:17:04;18.13;;;4.22;;
21780;SDS011;52576;53.614;9.894;2022-07-09T00:18:06;15.70;;;4.63;;
21780;SDS011;52576;53.614;9.894;2022-07-09T00:19:09;16.42;;;4.25;;
21780;SDS011;52576;53.614;9.894;2022-07-09T00:20:11;19.80;;;4.68;;
21780;SDS011;52576;53.614;9.894;2022-07-09T00:21:15;17.20;;;4.50;;
21780;SDS011;52576;53.614;9.894;2022-07-09T00:22:17;19.13;;;4.72;;
21780;SDS011;52576;53.614;9.894;2022-07-09T00:23:21;21.45;;;4.50;;
21780;SDS011;52576;53.614;9.894;2022-07-09T00:24:23;19.08;;;4.55;;
21780;SDS011;52576;53.614;9.894;2022-07-09T00:25:28;15.13;;;4.78;;
21780;SDS011;52576;53.614;9.894;2022-07-09T00:26:30;18.35;;;5.15;;
21780;SDS011;52576;53.614;9.894;2022-07-09T00:27:33;23.70;;;5.40;;
21780;SDS011;52576;53.614;9.894;2022-07-09T00:28:35;25.05;;;5.38;;
21780;SDS011;52576;53.614;9.894;2022-07-09T00:29:38;21.25;;;4.97;;
21780;SDS011;52576;53.614;9.894;2022-07-09T00:30:40;21.90;;;5.15;;
21780;SDS011;52576;53.614;9.894;2022-07-09T00:31:43;22.48;;;4.97;;
21780;SDS011;52576;53.614;9.894;2022-07-09T00:32:47;11.10;;;4.15;;
21780;SDS011;52576;53.614;9.894;2022-07-09T00:33:50;16.38;;;4.68;;
21780;SDS011;52576;53.614;9.894;2022-07-09T00:34:53;15.60;;;4.40;;
21780;SDS011;52576;53.614;9.894;2022-07-09T00:35:56;15.77;;;5.15;;
21780;SDS011;52576;53.614;9.894;2022-07-09T00:36:58;21.30;;;4.80;;
21780;SDS011;52576;53.614;9.894;2022-07-09T00:38:01;24.10;;;5.75;;
21780;SDS011;52576;53.614;9.894;2022-07-09T00:39:03;17.52;;;4.72;;
21780;SDS011;52576;53.614;9.894;2022-07-09T00:40:07;18.08;;;4.40;;
21780;SDS011;52576;53.614;9.894;2022-07-09T00:41:12;14.27;;;4.97;;
21780;SDS011;52576;53.614;9.894;2022-07-09T00:42:15;13.38;;;4.28;;
21780;SDS011;52576;53.614;9.894;2022-07-09T00:43:17;18.83;;;4.90;;
21780;SDS011;52576;53.614;9.894;2022-07-09T00:44:21;18.42;;;4.40;;
21780;SDS011;52576;53.614;9.894;2022-07-09T00:45:23;18.35;;;4.93;;
21780;SDS011;52576;53.614;9.894;2022-07-09T00:46:27;21.23;;;4.88;;
21780;SDS011;52576;53.614;9.894;2022-07-09T00:47:29;16.83;;;4.65;;
21780;SDS011;52576;53.614;9.894;2022-07-09T00:48:32;20.85;;;4.47;;
21780;SDS011;52576;53.614;9.894;2022-07-09T00:49:36;16.15;;;4.60;;
21780;SDS011;52576;53.614;9.894;2022-07-09T00:50:42;20.38;;;5.40;;
21780;SDS011;52576;53.614;9.894;2022-07-09T00:51:45;17.80;;;4.95;;
21780;SDS011;52576;53.614;9.894;2022-07-09T00:52:49;17.25;;;4.47;;
21780;SDS011;52576;53.614;9.894;2022-07-09T00:53:51;18.10;;;4.20;;
21780;SDS011;52576;53.614;9.894;2022-07-09T00:54:55;18.08;;;4.63;;
21780;SDS011;52576;53.614;9.894;2022-07-09T00:56:02;19.15;;;4.55;;
21780;SDS011;52576;53.614;9.894;2022-07-09T00:57:09;15.75;;;4.60;;
21780;SDS011;52576;53.614;9.894;2022-07-09T00:58:11;17.25;;;4.50;;
21780;SDS011;52576;53.614;9.894;2022-07-09T00:59:17;16.27;;;4.35;;
21780;SDS011;52576;53.614;9.894;2022-07-09T01:00:20;21.88;;;4.40;;
21780;SDS011;52576;53.614;9.894;2022-07-09T01:01:23;19.52;;;5.10;;
21780;SDS011;52576;53.614;9.894;2022-07-09T01:02:25;17.35;;;5.18;;
21780;SDS011;52576;53.614;9.894;2022-07-09T01:03:29;20.98;;;5.32;;
21780;SDS011;52576;53.614;9.894;2022-07-09T01:04:31;20.30;;;4.90;;
21780;SDS011;52576;53.614;9.894;2022-07-09T01:05:34;17.95;;;4.65;;
21780;SDS011;52576;53.614;9.894;2022-07-09T01:06:37;20.80;;;4.85;;
21780;SDS011;52576;53.614;9.894;2022-07-09T01:07:40;17.20;;;4.75;;
21780;SDS011;52576;53.614;9.894;2022-07-09T01:08:43;19.95;;;4.95;;
21780;SDS011;52576;53.614;9.894;2022-07-09T01:09:46;14.25;;;4.38;;
21780;SDS011;52576;53.614;9.894;2022-07-09T01:10:49;16.50;;;4.82;;
21780;SDS011;52576;53.614;9.894;2022-07-09T01:11:54;18.77;;;4.63;;
21780;SDS011;52576;53.614;9.894;2022-07-09T01:12:58;19.80;;;5.30;;
21780;SDS011;52576;53.614;9.894;2022-07-09T01:14:01;17.25;;;4.90;;
21780;SDS011;52576;53.614;9.894;2022-07-09T01:15:04;23.13;;;5.95;;
21780;SDS011;52576;53.614;9.894;2022-07-09T01:16:11;19.23;;;5.13;;
21780;SDS011;52576;53.614;9.894;2022-07-09T01:17:15;20.60;;;5.25;;
21780;SDS011;52576;53.614;9.894;2022-07-09T01:18:19;22.55;;;5.07;;
21780;SDS011;52576;53.614;9.894;2022-07-09T01:19:21;24.13;;;5.68;;
21780;SDS011;52576;53.614;9.894;2022-07-09T01:20:26;16.73;;;5.40;;
21780;SDS011;52576;53.614;9.894;2022-07-09T01:21:30;21.25;;;5.00;;
21780;SDS011;52576;53.614;9.894;2022-07-09T01:22:34;21.63;;;5.65;;
21780;SDS011;52576;53.614;9.894;2022-07-09T01:23:36;16.95;;;5.28;;
21780;SDS011;52576;53.614;9.894;2022-07-09T01:24:39;18.35;;;5.13;;
21780;SDS011;52576;53.614;9.894;2022-07-09T01:25:42;16.67;;;4.25;;
21780;SDS011;52576;53.614;9.894;2022-07-09T01:26:46;13.77;;;4.40;;
21780;SDS011;52576;53.614;9.894;2022-07-09T01:27:49;19.15;;;4.70;;
21780;SDS011;52576;53.614;9.894;2022-07-09T01:28:52;16.20;;;4.60;;
21780;SDS011;52576;53.614;9.894;2022-07-09T01:29:54;17.25;;;5.07;;
21780;SDS011;52576;53.614;9.894;2022-07-09T01:30:58;16.13;;;5.50;;
21780;SDS011;52576;53.614;9.894;2022-07-09T01:32:03;23.02;;;5.13;;
21780;SDS011;52576;53.614;9.894;2022-07-09T01:33:07;17.65;;;4.85;;
21780;SDS011;52576;53.614;9.894;2022-07-09T01:34:09;15.68;;;4.50;;
21780;SDS011;52576;53.614;9.894;2022-07-09T01:35:13;14.60;;;5.03;;
21780;SDS011;52576;53.614;9.894;2022-07-09T01:36:16;19.38;;;5.43;;
21780;SDS011;52576;53.614;9.894;2022-07-09T01:37:21;16.15;;;5.47;;
21780;SDS011;52576;53.614;9.894;2022-07-09T01:38:23;19.75;;;4.90;;
21780;SDS011;52576;53.614;9.894;2022-07-09T01:39:26;17.73;;;4.80;;
21780;SDS011;52576;53.614;9.894;2022-07-09T01:40:28;16.30;;;4.82;;
21780;SDS011;52576;53.614;9.894;2022-07-09T01:41:31;17.92;;;4.82;;
21780;SDS011;52576;53.614;9.894;2022-07-09T01:42:33;19.38;;;4.80;;
21780;SDS011;52576;53.614;9.894;2022-07-09T01:43:37;26.38;;;5.95;;
21780;SDS011;52576;53.614;9.894;2022-07-09T01:44:40;13.68;;;4.57;;
21780;SDS011;52576;53.614;9.894;2022-07-09T01:45:42;19.75;;;5.43;;
21780;SDS011;52576;53.614;9.894;2022-07-09T01:46:45;17.83;;;5.18;;
21780;SDS011;52576;53.614;9.894;2022-07-09T01:47:47;18.92;;;5.38;;
21780;SDS011;52576;53.614;9.894;2022-07-09T01:48:50;17.38;;;4.75;;
21780;SDS011;52576;53.614;9.894;2022-07-09T01:49:53;21.33;;;4.80;;
21780;SDS011;52576;53.614;9.894;2022-07-09T01:50:56;21.25;;;5.28;;
21780;SDS011;52576;53.614;9.894;2022-07-09T01:52:01;22.65;;;4.93;;
21780;SDS011;52576;53.614;9.894;2022-07-09T01:53:06;17.95;;;4.90;;
21780;SDS011;52576;53.614;9.894;2022-07-09T01:54:09;12.93;;;5.07;;
21780;SDS011;52576;53.614;9.894;2022-07-09T01:55:12;20.88;;;5.38;;
21780;SDS011;52576;53.614;9.894;2022-07-09T01:56:14;18.98;;;4.63;;
21780;SDS011;52576;53.614;9.894;2022-07-09T01:57:17;16.92;;;4.72;;
21780;SDS011;52576;53.614;9.894;2022-07-09T01:58:19;15.20;;;4.40;;
21780;SDS011;52576;53.614;9.894;2022-07-09T01:59:23;21.60;;;4.97;;
21780;SDS011;52576;53.614;9.894;2022-07-09T02:00:25;20.23;;;5.22;;
21780;SDS011;52576;53.614;9.894;2022-07-09T02:01:30;18.08;;;4.68;;
21780;SDS011;52576;53.614;9.894;2022-07-09T02:02:33;23.00;;;4.43;;
21780;SDS011;52576;53.614;9.894;2022-07-09T02:03:36;16.17;;;4.80;;
21780;SDS011;52576;53.614;9.894;2022-07-09T02:04:38;14.85;;;4.35;;
21780;SDS011;52576;53.614;9.894;2022-07-09T02:05:42;16.40;;;5.07;;
21780;SDS011;52576;53.614;9.894;2022-07-09T02:06:44;16.90;;;4.65;;
21780;SDS011;52576;53.614;9.894;2022-07-09T02:07:49;20.60;;;4.95;;
21780;SDS011;52576;53.614;9.894;2022-07-09T02:08:51;16.00;;;4.70;;
21780;SDS011;52576;53.614;9.894;2022-07-09T02:09:54;16.23;;;4.72;;
21780;SDS011;52576;53.614;9.894;2022-07-09T02:10:56;26.05;;;5.03;;
21780;SDS011;52576;53.614;9.894;2022-07-09T02:11:59;16.25;;;5.00;;
21780;SDS011;52576;53.614;9.894;2022-07-09T02:13:02;14.90;;;4.20;;
21780;SDS011;52576;53.614;9.894;2022-07-09T02:14:05;16.67;;;4.40;;
21780;SDS011;52576;53.614;9.894;2022-07-09T02:15:07;18.65;;;4.65;;
21780;SDS011;52576;53.614;9.894;2022-07-09T02:16:12;15.15;;;4.57;;
21780;SDS011;52576;53.614;9.894;2022-07-09T02:17:15;14.70;;;4.57;;
21780;SDS011;52576;53.614;9.894;2022-07-09T02:18:18;17.23;;;4.85;;
21780;SDS011;52576;53.614;9.894;2022-07-09T02:19:20;16.58;;;4.82;;
21780;SDS011;52576;53.614;9.894;2022-07-09T02:20:24;19.42;;;4.55;;
21780;SDS011;52576;53.614;9.894;2022-07-09T02:21:27;16.98;;;4.85;;
21780;SDS011;52576;53.614;9.894;2022-07-09T02:22:30;13.32;;;4.20;;
21780;SDS011;52576;53.614;9.894;2022-07-09T02:23:34;21.15;;;4.85;;
21780;SDS011;52576;53.614;9.894;2022-07-09T02:24:37;14.98;;;4.78;;
21780;SDS011;52576;53.614;9.894;2022-07-09T02:25:39;19.10;;;4.63;;
21780;SDS011;52576;53.614;9.894;2022-07-09T02:26:42;17.88;;;4.80;;
21780;SDS011;52576;53.614;9.894;2022-07-09T02:27:44;18.90;;;4.78;;
21780;SDS011;52576;53.614;9.894;2022-07-09T02:28:52;19.55;;;4.72;;
21780;SDS011;52576;53.614;9.894;2022-07-09T02:29:54;16.55;;;4.85;;
21780;SDS011;52576;53.614;9.894;2022-07-09T02:30:57;19.60;;;4.75;;
21780;SDS011;52576;53.614;9.894;2022-07-09T02:31:59;18.55;;;4.55;;
21780;SDS011;52576;53.614;9.894;2022-07-09T02:33:03;17.90;;;4.82;;
21780;SDS011;52576;53.614;9.894;2022-07-09T02:34:05;14.65;;;4.50;;
21780;SDS011;52576;53.614;9.894;2022-07-09T02:35:08;19.38;;;4.82;;
21780;SDS011;52576;53.614;9.894;2022-07-09T02:36:11;12.40;;;4.40;;
21780;SDS011;52576;53.614;9.894;2022-07-09T02:37:14;15.73;;;4.57;;
21780;SDS011;52576;53.614;9.894;2022-07-09T02:38:16;19.10;;;4.78;;
21780;SDS011;52576;53.614;9.894;2022-07-09T02:39:20;15.50;;;4.35;;
21780;SDS011;52576;53.614;9.894;2022-07-09T02:40:23;15.38;;;4.63;;
21780;SDS011;52576;53.614;9.894;2022-07-09T02:41:26;20.38;;;5.03;;
21780;SDS011;52576;53.614;9.894;2022-07-09T02:42:28;18.05;;;4.70;;
21780;SDS011;52576;53.614;9.894;2022-07-09T02:43:32;11.55;;;4.47;;
21780;SDS011;52576;53.614;9.894;2022-07-09T02:44:34;17.55;;;4.78;;
21780;SDS011;52576;53.614;9.894;2022-07-09T02:45:39;19.38;;;4.90;;
21780;SDS011;52576;53.614;9.894;2022-07-09T02:46:42;22.08;;;4.85;;
21780;SDS011;52576;53.614;9.894;2022-07-09T02:47:46;12.68;;;4.05;;
21780;SDS011;52576;53.614;9.894;2022-07-09T02:48:50;14.15;;;4.40;;
21780;SDS011;52576;53.614;9.894;2022-07-09T02:49:53;16.10;;;4.25;;
21780;SDS011;52576;53.614;9.894;2022-07-09T02:50:56;16.10;;;4.63;;
21780;SDS011;52576;53.614;9.894;2022-07-09T02:52:00;21.17;;;4.97;;
21780;SDS011;52576;53.614;9.894;2022-07-09T02:53:04;18.52;;;5.05;;
21780;SDS011;52576;53.614;9.894;2022-07-09T02:54:08;18.50;;;4.80;;
21780;SDS011;52576;53.614;9.894;2022-07-09T02:55:11;15.45;;;4.97;;
21780;SDS011;52576;53.614;9.894;2022-07-09T02:56:15;16.38;;;4.60;;
21780;SDS011;52576;53.614;9.894;2022-07-09T02:57:17;14.68;;;4.30;;
21780;SDS011;52576;53.614;9.894;2022-07-09T02:58:21;15.10;;;4.43;;
21780;SDS011;52576;53.614;9.894;2022-07-09T02:59:23;16.33;;;4.80;;
21780;SDS011;52576;53.614;9.894;2022-07-09T03:00:27;16.55;;;4.53;;
21780;SDS011;52576;53.614;9.894;2022-07-09T03:01:29;16.25;;;4.63;;
21780;SDS011;52576;53.614;9.894;2022-07-09T03:02:33;17.42;;;4.38;;
21780;SDS011;52576;53.614;9.894;2022-07-09T03:03:36;15.05;;;4.20;;
21780;SDS011;52576;53.614;9.894;2022-07-09T03:04:39;15.07;;;4.00;;
21780;SDS011;52576;53.614;9.894;2022-07-09T03:05:41;15.43;;;4.15;;
21780;SDS011;52576;53.614;9.894;2022-07-09T03:06:45;15.30;;;4.72;;
21780;SDS011;52576;53.614;9.894;2022-07-09T03:07:49;24.27;;;4.85;;
21780;SDS011;52576;53.614;9.894;2022-07-09T03:08:52;13.40;;;4.03;;
21780;SDS011;52576;53.614;9.894;2022-07-09T03:09:54;16.02;;;4.05;;
21780;SDS011;52576;53.614;9.894;2022-07-09T03:10:59;15.82;;;4.40;;
21780;SDS011;52576;53.614;9.894;2022-07-09T03:12:02;17.23;;;4.35;;
21780;SDS011;52576;53.614;9.894;2022-07-09T03:13:05;13.15;;;4.28;;
21780;SDS011;52576;53.614;9.894;2022-07-09T03:14:13;15.45;;;4.43;;
21780;SDS011;52576;53.614;9.894;2022-07-09T03:15:16;15.80;;;4.53;;
21780;SDS011;52576;53.614;9.894;2022-07-09T03:16:19;15.65;;;4.28;;
21780;SDS011;52576;53.614;9.894;2022-07-09T03:17:22;17.52;;;4.40;;
21780;SDS011;52576;53.614;9.894;2022-07-09T03:18:24;18.48;;;5.07;;
21780;SDS011;52576;53.614;9.894;2022-07-09T03:19:28;18.95;;;4.85;;
21780;SDS011;52576;53.614;9.894;2022-07-09T03:20:30;16.23;;;4.20;;
21780;SDS011;52576;53.614;9.894;2022-07-09T03:21:33;20.13;;;5.00;;
21780;SDS011;52576;53.614;9.894;2022-07-09T03:22:36;16.58;;;4.28;;
21780;SDS011;52576;53.614;9.894;2022-07-09T03:23:40;17.08;;;4.45;;
21780;SDS011;52576;53.614;9.894;2022-07-09T03:24:42;14.85;;;4.82;;
21780;SDS011;52576;53.614;9.894;2022-07-09T03:25:46;19.73;;;4.50;;
21780;SDS011;52576;53.614;9.894;2022-07-09T03:26:49;12.90;;;4.38;;
21780;SDS011;52576;53.614;9.894;2022-07-09T03:27:53;21.83;;;5.00;;
21780;SDS011;52576;53.614;9.894;2022-07-09T03:28:56;18.90;;;4.63;;
21780;SDS011;52576;53.614;9.894;2022-07-09T03:29:59;21.40;;;4.50;;
21780;SDS011;52576;53.614;9.894;2022-07-09T03:31:01;12.98;;;4.93;;
21780;SDS011;52576;53.614;9.894;2022-07-09T03:32:06;18.95;;;4.70;;
21780;SDS011;52576;53.614;9.894;2022-07-09T03:33:09;18.65;;;5.05;;
21780;SDS011;52576;53.614;9.894;2022-07-09T03:34:12;12.73;;;4.35;;
21780;SDS011;52576;53.614;9.894;2022-07-09T03:35:14;18.77;;;4.53;;
21780;SDS011;52576;53.614;9.894;2022-07-09T03:36:18;16.45;;;5.07;;
21780;SDS011;52576;53.614;9.894;2022-07-09T03:37:21;20.20;;;5.18;;
21780;SDS011;52576;53.614;9.894;2022-07-09T03:38:24;17.80;;;4.80;;
21780;SDS011;52576;53.614;9.894;2022-07-09T03:39:27;12.75;;;4.65;;
21780;SDS011;52576;53.614;9.894;2022-07-09T03:40:29;14.68;;;4.43;;
21780;SDS011;52576;53.614;9.894;2022-07-09T03:41:32;14.80;;;4.50;;
21780;SDS011;52576;53.614;9.894;2022-07-09T03:42:36;16.05;;;4.55;;
21780;SDS011;52576;53.614;9.894;2022-07-09T03:43:40;13.30;;;4.45;;
21780;SDS011;52576;53.614;9.894;2022-07-09T03:44:42;17.27;;;4.63;;
21780;SDS011;52576;53.614;9.894;2022-07-09T03:45:46;15.02;;;4.68;;
21780;SDS011;52576;53.614;9.894;2022-07-09T03:46:48;19.83;;;4.82;;
21780;SDS011;52576;53.614;9.894;2022-07-09T03:47:51;15.40;;;4.53;;
21780;SDS011;52576;53.614;9.894;2022-07-09T03:48:53;15.90;;;5.05;;
21780;SDS011;52576;53.614;9.894;2022-07-09T03:49:57;17.42;;;4.97;;
21780;SDS011;52576;53.614;9.894;2022-07-09T03:50:59;17.90;;;4.90;;
21780;SDS011;52576;53.614;9.894;2022-07-09T03:52:02;20.02;;;4.55;;
21780;SDS011;52576;53.614;9.894;2022-07-09T03:53:23;13.20;;;4.32;;
21780;SDS011;52576;53.614;9.894;2022-07-09T03:54:26;14.60;;;4.60;;
21780;SDS011;52576;53.614;9.894;2022-07-09T03:55:29;13.40;;;4.55;;
21780;SDS011;52576;53.614;9.894;2022-07-09T03:56:32;13.70;;;4.68;;
21780;SDS011;52576;53.614;9.894;2022-07-09T03:57:34;16.08;;;4.82;;
21780;SDS011;52576;53.614;9.894;2022-07-09T03:58:39;14.80;;;4.57;;
21780;SDS011;52576;53.614;9.894;2022-07-09T03:59:42;15.95;;;4.78;;
21780;SDS011;52576;53.614;9.894;2022-07-09T04:00:45;18.85;;;5.15;;
21780;SDS011;52576;53.614;9.894;2022-07-09T04:01:47;16.58;;;4.25;;
21780;SDS011;52576;53.614;9.894;2022-07-09T04:02:51;16.27;;;4.85;;
21780;SDS011;52576;53.614;9.894;2022-07-09T04:03:53;14.23;;;4.65;;
21780;SDS011;52576;53.614;9.894;2022-07-09T04:04:56;14.30;;;4.90;;
21780;SDS011;52576;53.614;9.894;2022-07-09T04:05:58;18.25;;;4.63;;
21780;SDS011;52576;53.614;9.894;2022-07-09T04:07:02;16.67;;;4.63;;
21780;SDS011;52576;53.614;9.894;2022-07-09T04:08:04;12.43;;;4.13;;
21780;SDS011;52576;53.614;9.894;2022-07-09T04:09:08;14.73;;;4.40;;
21780;SDS011;52576;53.614;9.894;2022-07-09T04:10:10;15.63;;;4.40;;
21780;SDS011;52576;53.614;9.894;2022-07-09T04:11:13;18.85;;;4.60;;
21780;SDS011;52576;53.614;9.894;2022-07-09T04:12:15;14.00;;;3.97;;
21780;SDS011;52576;53.614;9.894;2022-07-09T04:13:19;12.70;;;4.30;;
21780;SDS011;52576;53.614;9.894;2022-07-09T04:14:22;14.48;;;4.05;;
21780;SDS011;52576;53.614;9.894;2022-07-09T04:15:25;14.60;;;4.57;;
21780;SDS011;52576;53.614;9.894;2022-07-09T04:16:28;12.10;;;4.43;;
21780;SDS011;52576;53.614;9.894;2022-07-09T04:17:31;14.00;;;4.88;;
21780;SDS011;52576;53.614;9.894;2022-07-09T04:18:33;16.10;;;4.68;;
21780;SDS011;52576;53.614;9.894;2022-07-09T04:19:37;13.55;;;4.50;;
21780;SDS011;52576;53.614;9.894;2022-07-09T04:20:39;13.80;;;4.53;;
21780;SDS011;52576;53.614;9.894;2022-07-09T04:21:43;13.02;;;4.35;;
21780;SDS011;52576;53.614;9.894;2022-07-09T04:22:45;10.63;;;4.50;;
21780;SDS011;52576;53.614;9.894;2022-07-09T04:23:48;11.77;;;3.97;;
21780;SDS011;52576;53.614;9.894;2022-07-09T04:24:50;16.05;;;4.20;;
21780;SDS011;52576;53.614;9.894;2022-07-09T04:25:54;11.68;;;4.15;;
21780;SDS011;52576;53.614;9.894;2022-07-09T04:26:57;16.45;;;4.70;;
21780;SDS011;52576;53.614;9.894;2022-07-09T04:28:00;11.23;;;4.07;;
21780;SDS011;52576;53.614;9.894;2022-07-09T04:29:02;17.85;;;5.15;;
21780;SDS011;52576;53.614;9.894;2022-07-09T04:30:07;8.88;;;3.95;;
21780;SDS011;52576;53.614;9.894;2022-07-09T04:31:11;13.38;;;4.47;;
21780;SDS011;52576;53.614;9.894;2022-07-09T04:32:14;13.43;;;4.28;;
21780;SDS011;52576;53.614;9.894;2022-07-09T04:33:16;15.15;;;4.47;;
21780;SDS011;52576;53.614;9.894;2022-07-09T04:34:20;12.25;;;4.50;;
21780;SDS011;52576;53.614;9.894;2022-07-09T04:35:22;14.82;;;4.80;;
21780;SDS011;52576;53.614;9.894;2022-07-09T04:36:25;16.73;;;4.68;;
21780;SDS011;52576;53.614;9.894;2022-07-09T04:37:29;14.32;;;4.47;;
21780;SDS011;52576;53.614;9.894;2022-07-09T04:38:32;12.68;;;4.93;;
21780;SDS011;52576;53.614;9.894;2022-07-09T04:39:35;13.90;;;4.57;;
21780;SDS011;52576;53.614;9.894;2022-07-09T04:40:39;16.13;;;4.43;;
21780;SDS011;52576;53.614;9.894;2022-07-09T04:41:41;17.15;;;4.35;;
21780;SDS011;52576;53.614;9.894;2022-07-09T04:42:44;14.45;;;4.40;;
21780;SDS011;52576;53.614;9.894;2022-07-09T04:43:46;12.18;;;4.40;;
21780;SDS011;52576;53.614;9.894;2022-07-09T04:44:49;10.00;;;4.80;;
21780;SDS011;52576;53.614;9.894;2022-07-09T04:45:53;17.50;;;4.75;;
21780;SDS011;52576;53.614;9.894;2022-07-09T04:46:56;13.77;;;4.30;;
21780;SDS011;52576;53.614;9.894;2022-07-09T04:47:58;11.68;;;4.38;;
21780;SDS011;52576;53.614;9.894;2022-07-09T04:49:02;13.90;;;4.53;;
21780;SDS011;52576;53.614;9.894;2022-07-09T04:50:04;14.93;;;4.85;;
21780;SDS011;52576;53.614;9.894;2022-07-09T04:51:08;12.48;;;4.45;;
21780;SDS011;52576;53.614;9.894;2022-07-09T04:52:10;16.65;;;4.82;;
21780;SDS011;52576;53.614;9.894;2022-07-09T04:53:18;12.52;;;4.18;;
21780;SDS011;52576;53.614;9.894;2022-07-09T04:54:20;13.25;;;4.60;;
21780;SDS011;52576;53.614;9.894;2022-07-09T04:55:23;12.48;;;4.57;;
21780;SDS011;52576;53.614;9.894;2022-07-09T04:56:25;12.68;;;4.40;;
21780;SDS011;52576;53.614;9.894;2022-07-09T04:57:28;11.63;;;4.07;;
21780;SDS011;52576;53.614;9.894;2022-07-09T04:58:31;15.00;;;4.53;;
21780;SDS011;52576;53.614;9.894;2022-07-09T04:59:34;13.07;;;4.30;;
21780;SDS011;52576;53.614;9.894;2022-07-09T05:00:36;12.50;;;3.90;;
21780;SDS011;52576;53.614;9.894;2022-07-09T05:01:41;13.85;;;3.97;;
21780;SDS011;52576;53.614;9.894;2022-07-09T05:02:44;11.13;;;4.40;;
21780;SDS011;52576;53.614;9.894;2022-07-09T05:03:47;19.58;;;4.32;;
21780;SDS011;52576;53.614;9.894;2022-07-09T05:04:50;10.82;;;3.92;;
21780;SDS011;52576;53.614;9.894;2022-07-09T05:05:54;17.13;;;4.53;;
21780;SDS011;52576;53.614;9.894;2022-07-09T05:06:56;11.05;;;3.95;;
21780;SDS011;52576;53.614;9.894;2022-07-09T05:08:00;10.48;;;4.00;;
21780;SDS011;52576;53.614;9.894;2022-07-09T05:09:02;13.38;;;4.05;;
21780;SDS011;52576;53.614;9.894;2022-07-09T05:10:06;11.20;;;4.13;;
21780;SDS011;52576;53.614;9.894;2022-07-09T05:11:08;13.93;;;4.20;;
21780;SDS011;52576;53.614;9.894;2022-07-09T05:12:18;11.95;;;3.85;;
21780;SDS011;52576;53.614;9.894;2022-07-09T05:13:21;15.02;;;4.45;;
21780;SDS011;52576;53.614;9.894;2022-07-09T05:14:23;12.15;;;4.15;;
21780;SDS011;52576;53.614;9.894;2022-07-09T05:15:27;12.80;;;4.40;;
21780;SDS011;52576;53.614;9.894;2022-07-09T05:16:32;6.90;;;3.40;;
21780;SDS011;52576;53.614;9.894;2022-07-09T05:17:36;14.02;;;4.43;;
21780;SDS011;52576;53.614;9.894;2022-07-09T05:18:40;10.35;;;3.60;;
21780;SDS011;52576;53.614;9.894;2022-07-09T05:19:42;13.32;;;4.07;;
21780;SDS011;52576;53.614;9.894;2022-07-09T05:20:45;14.85;;;3.97;;
21780;SDS011;52576;53.614;9.894;2022-07-09T05:21:47;10.07;;;3.42;;
21780;SDS011;52576;53.614;9.894;2022-07-09T05:22:51;13.93;;;3.97;;
21780;SDS011;52576;53.614;9.894;2022-07-09T05:23:53;12.98;;;4.00;;
21780;SDS011;52576;53.614;9.894;2022-07-09T05:24:57;11.25;;;4.00;;
21780;SDS011;52576;53.614;9.894;2022-07-09T05:25:59;9.05;;;3.70;;
21780;SDS011;52576;53.614;9.894;2022-07-09T05:27:04;10.35;;;3.50;;
21780;SDS011;52576;53.614;9.894;2022-07-09T05:28:06;9.18;;;3.33;;
21780;SDS011;52576;53.614;9.894;2022-07-09T05:29:09;12.95;;;3.63;;
21780;SDS011;52576;53.614;9.894;2022-07-09T05:30:12;11.25;;;3.85;;
21780;SDS011;52576;53.614;9.894;2022-07-09T05:31:20;13.98;;;3.40;;
21780;SDS011;52576;53.614;9.894;2022-07-09T05:32:38;15.30;;;3.80;;
21780;SDS011;52576;53.614;9.894;2022-07-09T05:33:42;10.75;;;3.80;;
21780;SDS011;52576;53.614;9.894;2022-07-09T05:34:50;12.80;;;3.78;;
21780;SDS011;52576;53.614;9.894;2022-07-09T05:35:54;7.65;;;3.08;;
21780;SDS011;52576;53.614;9.894;2022-07-09T05:36:56;10.73;;;4.20;;
21780;SDS011;52576;53.614;9.894;2022-07-09T05:37:59;9.05;;;3.75;;
21780;SDS011;52576;53.614;9.894;2022-07-09T05:39:02;12.90;;;3.63;;
21780;SDS011;52576;53.614;9.894;2022-07-09T05:40:05;9.90;;;3.60;;
21780;SDS011;52576;53.614;9.894;2022-07-09T05:41:08;15.63;;;3.83;;
21780;SDS011;52576;53.614;9.894;2022-07-09T05:42:12;11.40;;;3.55;;
21780;SDS011;52576;53.614;9.894;2022-07-09T05:43:14;10.27;;;3.20;;
21780;SDS011;52576;53.614;9.894;2022-07-09T05:44:17;12.25;;;3.75;;
21780;SDS011;52576;53.614;9.894;2022-07-09T05:45:25;11.52;;;3.70;;
21780;SDS011;52576;53.614;9.894;2022-07-09T05:46:28;8.73;;;3.42;;
21780;SDS011;52576;53.614;9.894;2022-07-09T05:47:31;11.63;;;4.00;;
21780;SDS011;52576;53.614;9.894;2022-07-09T05:48:36;12.73;;;4.55;;
21780;SDS011;52576;53.614;9.894;2022-07-09T05:49:39;9.63;;;3.67;;
21780;SDS011;52576;53.614;9.894;2022-07-09T05:50:42;12.43;;;4.00;;
21780;SDS011;52576;53.614;9.894;2022-07-09T05:51:44;10.95;;;3.70;;
21780;SDS011;52576;53.614;9.894;2022-07-09T05:52:47;9.88;;;3.90;;
21780;SDS011;52576;53.614;9.894;2022-07-09T05:53:49;13.32;;;4.45;;
21780;SDS011;52576;53.614;9.894;2022-07-09T05:54:52;9.40;;;4.05;;
21780;SDS011;52576;53.614;9.894;2022-07-09T05:55:54;14.40;;;3.78;;
21780;SDS011;52576;53.614;9.894;2022-07-09T05:56:58;12.00;;;4.00;;
21780;SDS011;52576;53.614;9.894;2022-07-09T05:58:00;14.18;;;4.15;;
21780;SDS011;52576;53.614;9.894;2022-07-09T05:59:03;11.82;;;3.80;;
21780;SDS011;52576;53.614;9.894;2022-07-09T06:00:06;12.70;;;3.75;;
21780;SDS011;52576;53.614;9.894;2022-07-09T06:01:10;9.60;;;4.00;;
21780;SDS011;52576;53.614;9.894;2022-07-09T06:02:13;8.43;;;3.63;;
21780;SDS011;52576;53.614;9.894;2022-07-09T06:03:17;14.65;;;4.40;;
21780;SDS011;52576;53.614;9.894;2022-07-09T06:04:20;10.90;;;4.10;;
21780;SDS011;52576;53.614;9.894;2022-07-09T06:05:24;9.27;;;4.10;;
21780;SDS011;52576;53.614;9.894;2022-07-09T06:06:26;10.50;;;3.70;;
21780;SDS011;52576;53.614;9.894;2022-07-09T06:07:30;13.57;;;4.22;;
21780;SDS011;52576;53.614;9.894;2022-07-09T06:08:33;13.55;;;4.80;;
21780;SDS011;52576;53.614;9.894;2022-07-09T06:09:36;11.95;;;4.55;;
21780;SDS011;52576;53.614;9.894;2022-07-09T06:10:39;17.40;;;4.68;;
21780;SDS011;52576;53.614;9.894;2022-07-09T06:11:42;12.57;;;4.30;;
21780;SDS011;52576;53.614;9.894;2022-07-09T06:12:44;10.40;;;3.83;;
21780;SDS011;52576;53.614;9.894;2022-07-09T06:13:47;10.23;;;4.35;;
21780;SDS011;52576;53.614;9.894;2022-07-09T06:14:50;11.43;;;4.50;;
21780;SDS011;52576;53.614;9.894;2022-07-09T06:15:53;9.32;;;4.22;;
21780;SDS011;52576;53.614;9.894;2022-07-09T06:16:56;12.13;;;4.03;;